Aeroporto :
LOGIN :

Iscrizione | Disclaimer

   EN    FR    IT 

 










Sommario :    VFR   VFR Marginale   IFR   IFR Intensivo   IFR Molto Intensivo
Visibilità : 
Base nubi : 
>= 8 km
>= 3000ft
5 / 8 km
1000 / 3000 ft
1500m / 5 km
500 / 1000 ft
800 / 1500m
200 / 500 ft
< 800m
< 200 ft
Simboli :   Temporali  Nebbia  Neve Forte  Precipitazioni Forti  Vento > 20 kt
SIGMETs :   Varie  Temporali  Ghiacco  Turbolenza  Onda orograficha  Ceneri Vulcaniche






- Altitudine del aeroporto : 1411 ft
- Codice IATA : GVA


LSGG - Genève Cointrin

ULTIMO METAR :
  • 190250Z AUTO VRB01KT 9999 NCD 18/15 Q1013 NOSIG

METARs OBSOLETI :
  • 190220Z AUTO VRB01KT 9999 SCT095 18/16 Q1013 NOSIG
  • 190150Z AUTO VRB01KT 9999 BKN098 18/16 Q1013 NOSIG
  • 190120Z AUTO VRB01KT CAVOK 18/15 Q1013 NOSIG
  • 190050Z AUTO VRB01KT CAVOK 18/15 Q1014 NOSIG
  • 190020Z AUTO VRB01KT CAVOK 19/15 Q1014 NOSIG
  • 182350Z AUTO VRB01KT CAVOK 19/15 Q1014 NOSIG
  • 182320Z AUTO VRB02KT CAVOK 19/16 Q1014 NOSIG
  • 182250Z AUTO VRB01KT CAVOK 20/16 Q1013 NOSIG
  • 182220Z AUTO VRB01KT CAVOK 20/16 Q1013 NOSIG

TAF TAF LSGG
Valido dal 19 a 03 ore il 20 a 09 ore UTC


190225Z 1903/2009 VRB02KT 9999 FEW050 TX28/1915Z TN18/1904Z TN18/2004Z
PROB30
TEMPO 1903/1923 BKN070
BECMG 1913/1915 23008KT
PROB30
TEMPO 1919/1923 TSRA SCT030CB
BECMG 2005/2009 SHRA SCT030 BKN070
PROB30
TEMPO 2006/2009 TS FEW030CB
ATIS : +41 22 417 40 81



MetMap, La meteo Aeronautica in un colpo d'occhio ! - Copyright ORBIFLY Dicembre 2007 - Disclaimer

ORBIFLY MET'MAP TEAM :

Programmazione e sviluppo : Alexandra Zaïnal
Concezione : Baudouin d'Aumeries
Supporto tecnico e logistico : Manuel Goepfert
Aiuto : Marc-Olivier Méhu
Aiuto per la traduzione : Arnaldo La Scala




FONTI E CREDITI :

   NOAA